createdAt,value
2018-05-10T00:00:10.880Z,18.00
2018-05-10T00:02:38.392Z,18.00
2018-05-10T00:05:05.883Z,18.00
2018-05-10T00:07:33.415Z,17.90
2018-05-10T00:10:01.724Z,17.80
2018-05-10T00:12:30.015Z,17.70
2018-05-10T00:14:57.519Z,17.70
2018-05-10T00:17:25.030Z,17.60
2018-05-10T00:19:52.524Z,17.50
2018-05-10T00:22:20.802Z,17.50
2018-05-10T00:24:49.080Z,17.50
2018-05-10T00:27:16.570Z,17.50
2018-05-10T00:29:44.867Z,17.70
2018-05-10T00:32:12.364Z,17.70
2018-05-10T00:34:39.883Z,17.60
2018-05-10T00:37:07.372Z,17.60
2018-05-10T00:39:35.663Z,17.50
2018-05-10T00:42:03.164Z,17.50
2018-05-10T00:44:30.696Z,17.50
2018-05-10T00:46:58.956Z,17.50
2018-05-10T00:49:26.484Z,17.50
2018-05-10T00:51:53.979Z,17.60
2018-05-10T00:54:33.244Z,17.60
2018-05-10T00:57:00.764Z,17.60
2018-05-10T00:59:28.279Z,17.60
2018-05-10T01:01:55.763Z,17.60
2018-05-10T01:04:23.280Z,17.60
2018-05-10T01:06:50.767Z,17.60
2018-05-10T01:09:18.279Z,17.60
2018-05-10T01:11:45.783Z,17.60
2018-05-10T01:14:14.063Z,17.60
2018-05-10T01:16:42.319Z,17.60
2018-05-10T01:19:09.827Z,17.60
2018-05-10T01:21:38.093Z,17.60
2018-05-10T01:24:05.611Z,17.60
2018-05-10T01:26:33.115Z,17.60
2018-05-10T01:29:00.631Z,17.50
2018-05-10T01:31:28.143Z,17.60
2018-05-10T01:33:55.667Z,17.50
2018-05-10T01:36:23.923Z,17.30
2018-05-10T01:38:51.440Z,17.30
2018-05-10T01:41:19.692Z,17.10
2018-05-10T01:43:47.204Z,17.10
2018-05-10T01:46:14.719Z,17.00
2018-05-10T01:48:42.240Z,17.00
2018-05-10T01:51:10.506Z,16.80
2018-05-10T01:53:38.000Z,16.80
2018-05-10T01:56:06.282Z,16.70
2018-05-10T01:58:34.550Z,16.60
2018-05-10T02:01:02.167Z,16.60
2018-05-10T02:03:29.671Z,16.60
2018-05-10T02:05:57.184Z,16.60
2018-05-10T02:08:25.475Z,16.70
2018-05-10T02:10:53.769Z,16.70
2018-05-10T02:13:22.019Z,16.60
2018-05-10T02:15:50.330Z,16.60
2018-05-10T02:18:17.830Z,16.60
2018-05-10T02:20:45.359Z,16.60
2018-05-10T02:23:12.867Z,16.60
2018-05-10T02:25:41.148Z,16.60
2018-05-10T02:28:09.411Z,16.50
2018-05-10T02:30:38.459Z,16.40
2018-05-10T02:33:05.964Z,16.40
2018-05-10T02:35:33.498Z,16.50
2018-05-10T02:38:01.783Z,16.70
2018-05-10T02:40:30.059Z,16.60
2018-05-10T02:42:57.559Z,16.50
2018-05-10T02:45:25.089Z,16.50
2018-05-10T02:47:53.383Z,16.50
2018-05-10T02:50:20.892Z,16.50
2018-05-10T02:52:48.404Z,16.60
2018-05-10T02:55:15.911Z,16.40
2018-05-10T02:57:44.166Z,16.40
2018-05-10T03:00:11.692Z,16.40
2018-05-10T03:02:39.183Z,16.30
2018-05-10T03:05:06.680Z,16.30
2018-05-10T03:07:34.220Z,16.30
2018-05-10T03:10:01.714Z,16.30
2018-05-10T03:12:29.266Z,16.40
2018-05-10T03:14:56.751Z,16.40
2018-05-10T03:17:24.264Z,16.40
2018-05-10T03:19:52.519Z,16.50
2018-05-10T03:22:20.061Z,16.50
2018-05-10T03:24:47.559Z,16.60
2018-05-10T03:27:15.068Z,16.60
2018-05-10T03:29:43.319Z,16.60
2018-05-10T03:32:10.831Z,16.60
2018-05-10T03:34:39.819Z,16.80
2018-05-10T03:37:07.347Z,16.80
2018-05-10T03:39:34.846Z,16.80
2018-05-10T03:42:02.395Z,16.70
2018-05-10T03:44:29.884Z,16.80
2018-05-10T03:46:57.395Z,16.70
2018-05-10T03:49:25.647Z,16.60
2018-05-10T03:51:53.161Z,16.60
2018-05-10T03:54:21.420Z,16.60
2018-05-10T03:56:48.951Z,16.50
2018-05-10T03:59:16.439Z,16.30
2018-05-10T04:01:43.980Z,16.10
2018-05-10T04:04:33.974Z,15.90
2018-05-10T04:07:13.352Z,15.80
2018-05-10T04:09:52.791Z,15.90
2018-05-10T04:12:20.328Z,15.90
2018-05-10T04:14:48.587Z,16.10
2018-05-10T04:17:16.123Z,16.00
2018-05-10T04:19:43.616Z,16.10
2018-05-10T04:22:11.133Z,16.20
2018-05-10T04:24:39.404Z,16.50
2018-05-10T04:27:06.942Z,16.40
2018-05-10T04:29:34.435Z,16.60
2018-05-10T04:32:02.274Z,16.90
2018-05-10T04:34:29.771Z,17.20
2018-05-10T04:36:57.263Z,17.20
2018-05-10T04:39:24.807Z,17.30
2018-05-10T04:41:52.304Z,17.40
2018-05-10T04:44:19.827Z,17.40
2018-05-10T04:46:47.323Z,17.50
2018-05-10T04:49:14.861Z,17.50
2018-05-10T04:51:42.348Z,17.40
2018-05-10T04:54:09.874Z,17.50
2018-05-10T04:56:37.364Z,17.70
2018-05-10T04:59:05.704Z,17.60
2018-05-10T05:01:33.201Z,17.60
2018-05-10T05:04:00.739Z,17.80
2018-05-10T05:06:28.231Z,18.00
2018-05-10T05:08:55.782Z,18.10
2018-05-10T05:11:23.263Z,18.30
2018-05-10T05:13:50.774Z,18.60
2018-05-10T05:16:19.060Z,19.50
2018-05-10T05:18:47.339Z,20.00
2018-05-10T05:21:14.832Z,20.00
2018-05-10T05:23:43.126Z,19.80
2018-05-10T05:26:10.629Z,19.70
2018-05-10T05:28:38.156Z,19.30
2018-05-10T05:31:06.414Z,19.00
2018-05-10T05:33:33.948Z,19.00
2018-05-10T05:36:01.451Z,18.70
2018-05-10T05:38:28.977Z,18.40
2018-05-10T05:40:56.471Z,18.40
2018-05-10T05:43:24.047Z,18.30
2018-05-10T05:45:51.515Z,18.40
2018-05-10T05:48:19.007Z,18.40
2018-05-10T05:50:46.523Z,18.60
2018-05-10T05:53:14.806Z,18.70
2018-05-10T05:55:43.085Z,18.70
2018-05-10T05:58:11.365Z,18.50
2018-05-10T06:00:38.993Z,18.50
2018-05-10T06:03:06.499Z,19.00
2018-05-10T06:05:34.017Z,19.20
2018-05-10T06:08:01.522Z,19.20
2018-05-10T06:10:29.039Z,19.40
2018-05-10T06:12:57.296Z,19.20
2018-05-10T06:15:24.909Z,19.20
2018-05-10T06:17:52.334Z,18.70
2018-05-10T06:20:19.847Z,18.50
2018-05-10T06:22:48.102Z,18.50
2018-05-10T06:25:15.655Z,18.50
2018-05-10T06:27:43.127Z,18.50
2018-05-10T06:30:10.637Z,18.50
2018-05-10T06:32:38.898Z,18.50
2018-05-10T06:35:06.420Z,18.50
2018-05-10T06:37:33.956Z,18.40
2018-05-10T06:40:01.577Z,18.40
2018-05-10T06:42:29.067Z,18.50
2018-05-10T06:44:56.580Z,18.60
2018-05-10T06:47:24.076Z,18.60
2018-05-10T06:49:51.596Z,18.60
2018-05-10T06:52:19.095Z,18.40
2018-05-10T06:54:47.360Z,18.20
2018-05-10T06:57:14.875Z,18.20
2018-05-10T06:59:43.137Z,18.50
2018-05-10T07:02:10.828Z,18.40
2018-05-10T07:04:39.088Z,18.10
2018-05-10T07:07:06.617Z,18.00
2018-05-10T07:09:34.232Z,17.90
2018-05-10T07:12:01.672Z,17.70
2018-05-10T07:14:29.226Z,17.60
2018-05-10T07:16:56.699Z,17.60
2018-05-10T07:19:24.211Z,17.60
2018-05-10T07:21:52.491Z,17.60
2018-05-10T07:24:19.991Z,17.60
2018-05-10T07:26:47.503Z,17.60
2018-05-10T07:29:15.035Z,17.60
2018-05-10T07:31:42.556Z,17.60
2018-05-10T07:34:10.067Z,17.90
2018-05-10T07:36:37.587Z,18.20
2018-05-10T07:39:05.137Z,18.40
2018-05-10T07:41:33.634Z,17.80
2018-05-10T07:44:01.904Z,17.70
2018-05-10T07:46:29.415Z,17.60
2018-05-10T07:48:56.900Z,17.90
2018-05-10T07:51:24.427Z,18.20
2018-05-10T07:53:52.679Z,18.50
2018-05-10T07:56:20.196Z,18.50
2018-05-10T07:58:48.606Z,18.70
2018-05-10T08:01:16.119Z,18.80
2018-05-10T08:03:43.650Z,18.80
2018-05-10T08:06:11.147Z,19.00
2018-05-10T08:08:38.656Z,19.10
2018-05-10T08:11:06.368Z,19.20
2018-05-10T08:13:33.938Z,19.10
2018-05-10T08:16:01.437Z,18.80
2018-05-10T08:18:28.947Z,19.10
2018-05-10T08:20:56.451Z,19.30
2018-05-10T08:23:23.959Z,19.50
2018-05-10T08:25:51.449Z,19.70
2018-05-10T08:28:19.001Z,19.70
2018-05-10T08:30:46.520Z,19.90
2018-05-10T08:33:14.812Z,20.00
2018-05-10T08:35:42.328Z,19.90
2018-05-10T08:38:09.851Z,19.80
2018-05-10T08:40:37.383Z,19.70
2018-05-10T08:43:05.689Z,19.80
2018-05-10T08:45:33.237Z,19.80
2018-05-10T08:48:00.767Z,19.90
2018-05-10T08:50:28.259Z,20.10
2018-05-10T08:52:55.776Z,20.20
2018-05-10T08:55:23.279Z,20.50
2018-05-10T08:57:50.787Z,20.60
2018-05-10T09:00:18.292Z,20.30
2018-05-10T09:02:45.836Z,19.90
2018-05-10T09:05:13.343Z,19.90
2018-05-10T09:07:41.623Z,20.30
2018-05-10T09:10:09.130Z,20.20
2018-05-10T09:12:36.619Z,20.50
2018-05-10T09:15:04.175Z,20.60
2018-05-10T09:17:31.671Z,20.60
2018-05-10T09:19:59.205Z,20.70
2018-05-10T09:22:26.703Z,20.90
2018-05-10T09:24:55.015Z,20.90
2018-05-10T09:27:22.511Z,20.80
2018-05-10T09:29:50.053Z,20.80
2018-05-10T09:32:17.539Z,20.80
2018-05-10T09:34:45.056Z,20.80
2018-05-10T09:37:12.539Z,20.50
2018-05-10T09:39:40.147Z,20.40
2018-05-10T09:42:07.714Z,20.30
2018-05-10T09:44:35.276Z,20.30
2018-05-10T09:47:02.780Z,20.70
2018-05-10T09:49:30.303Z,21.00
2018-05-10T09:51:57.799Z,21.40
2018-05-10T09:54:25.367Z,21.30
2018-05-10T09:56:52.859Z,21.00
2018-05-10T09:59:20.372Z,20.90
2018-05-10T10:01:47.867Z,20.70
2018-05-10T10:04:15.391Z,20.90
2018-05-10T10:06:43.644Z,20.50
2018-05-10T10:09:11.160Z,20.50
2018-05-10T10:11:39.480Z,20.50
2018-05-10T10:14:07.740Z,20.50
2018-05-10T10:16:36.004Z,20.40
2018-05-10T10:19:03.517Z,20.40
2018-05-10T10:21:31.014Z,20.00
2018-05-10T10:23:58.548Z,20.10
2018-05-10T10:26:26.804Z,20.30
2018-05-10T10:28:54.295Z,20.30
2018-05-10T10:31:22.588Z,19.90
2018-05-10T10:33:50.856Z,19.90
2018-05-10T10:36:18.377Z,19.90
2018-05-10T10:38:45.868Z,19.80
2018-05-10T10:41:13.412Z,19.80
2018-05-10T10:43:40.903Z,19.50
2018-05-10T10:46:09.287Z,19.70
2018-05-10T10:48:36.771Z,19.90
2018-05-10T10:51:04.326Z,20.10
2018-05-10T10:53:31.832Z,20.10
2018-05-10T10:55:59.360Z,20.00
2018-05-10T10:58:26.848Z,20.00
2018-05-10T11:00:54.369Z,20.10
2018-05-10T11:03:21.864Z,20.80
2018-05-10T11:05:49.380Z,21.00
2018-05-10T11:08:16.904Z,21.30
2018-05-10T11:10:44.424Z,21.70
2018-05-10T11:13:12.065Z,21.40
2018-05-10T11:15:40.566Z,21.60
2018-05-10T11:18:19.474Z,21.60
2018-05-10T12:18:01.996Z,20.90
2018-05-10T12:48:40.870Z,19.80
2018-05-10T12:51:10.366Z,19.40
2018-05-10T12:53:43.139Z,19.30
2018-05-10T12:56:12.732Z,19.00
2018-05-10T12:58:40.138Z,18.70
2018-05-10T13:01:07.634Z,18.60
2018-05-10T13:03:35.161Z,18.60
2018-05-10T13:06:02.648Z,18.60
2018-05-10T13:08:31.061Z,18.30
2018-05-10T13:10:58.458Z,18.30
2018-05-10T13:13:26.011Z,17.90
2018-05-10T13:15:53.495Z,18.30
2018-05-10T13:18:21.039Z,18.40
2018-05-10T13:20:49.291Z,18.10
2018-05-10T13:23:16.840Z,18.10
2018-05-10T13:25:44.333Z,18.20
2018-05-10T13:28:11.879Z,18.20
2018-05-10T13:30:39.383Z,18.60
2018-05-10T13:33:06.976Z,18.70
2018-05-10T13:35:34.443Z,18.60
2018-05-10T13:38:03.463Z,18.30
2018-05-10T13:40:31.868Z,18.30
2018-05-10T13:42:59.393Z,18.10
2018-05-10T13:45:26.931Z,17.70
2018-05-10T13:47:54.437Z,17.80
2018-05-10T13:50:21.955Z,17.70
2018-05-10T13:52:49.792Z,17.40
2018-05-10T13:55:17.327Z,17.20
2018-05-10T13:57:44.824Z,16.70
2018-05-10T14:00:12.359Z,16.20
2018-05-10T14:02:39.863Z,16.00
2018-05-10T14:05:07.417Z,16.30
2018-05-10T14:07:34.912Z,16.60
2018-05-10T14:10:02.447Z,16.20
2018-05-10T14:12:29.943Z,15.90
2018-05-10T14:14:57.465Z,15.70
2018-05-10T14:17:25.729Z,15.20
2018-05-10T14:19:53.277Z,15.20
2018-05-10T14:22:20.821Z,15.10
2018-05-10T14:24:48.334Z,14.90
2018-05-10T14:27:17.338Z,14.70
2018-05-10T14:29:44.945Z,14.70
2018-05-10T14:32:13.226Z,14.40
2018-05-10T14:34:41.511Z,14.40
2018-05-10T14:37:09.016Z,14.30
2018-05-10T14:39:36.581Z,14.10
2018-05-10T14:42:04.820Z,14.00
2018-05-10T14:44:32.348Z,14.00
2018-05-10T14:46:59.864Z,13.80
2018-05-10T14:49:27.363Z,13.60
2018-05-10T14:51:55.640Z,13.20
2018-05-10T14:54:23.905Z,13.00
2018-05-10T14:56:51.423Z,13.00
2018-05-10T14:59:19.683Z,13.00
2018-05-10T15:01:47.217Z,13.00
2018-05-10T15:04:14.717Z,12.90
2018-05-10T15:06:42.272Z,12.80
2018-05-10T15:09:09.768Z,12.60
2018-05-10T15:11:37.283Z,12.50
2018-05-10T15:14:04.790Z,12.30
2018-05-10T15:16:32.327Z,12.10
2018-05-10T15:18:59.824Z,12.20
2018-05-10T15:21:27.356Z,12.00
2018-05-10T15:23:54.848Z,12.00
2018-05-10T15:26:22.616Z,11.90
2018-05-10T15:28:50.190Z,11.90
2018-05-10T15:31:17.737Z,11.90
2018-05-10T15:33:46.003Z,12.10
2018-05-10T15:36:13.532Z,12.00
2018-05-10T15:38:41.040Z,12.10
2018-05-10T15:41:08.559Z,12.00
2018-05-10T15:43:36.061Z,12.00
2018-05-10T15:46:03.620Z,12.00
2018-05-10T15:48:31.154Z,11.90
2018-05-10T15:50:59.431Z,12.00
2018-05-10T15:53:26.929Z,11.90
2018-05-10T15:55:54.460Z,12.10
2018-05-10T15:58:21.993Z,12.10
2018-05-10T16:00:49.511Z,12.10
2018-05-10T16:03:17.073Z,12.20
2018-05-10T16:05:44.604Z,12.10
2018-05-10T16:08:12.128Z,12.20
2018-05-10T16:10:39.628Z,12.20
2018-05-10T16:13:07.157Z,12.20
2018-05-10T16:15:34.659Z,12.20
2018-05-10T16:18:02.206Z,12.30
2018-05-10T16:20:30.534Z,12.30
2018-05-10T16:22:58.057Z,12.30
2018-05-10T16:25:25.562Z,12.40
2018-05-10T16:27:53.851Z,12.30
2018-05-10T16:30:21.349Z,12.30
2018-05-10T16:32:48.916Z,12.30
2018-05-10T16:35:16.437Z,12.30
2018-05-10T16:37:43.963Z,12.30
2018-05-10T16:40:11.483Z,12.40
2018-05-10T16:42:39.015Z,12.30
2018-05-10T16:45:06.503Z,12.40
2018-05-10T16:47:34.033Z,12.30
2018-05-10T16:50:01.535Z,12.40
2018-05-10T16:52:29.072Z,12.40
2018-05-10T16:54:56.600Z,12.40
2018-05-10T16:57:24.135Z,12.50
2018-05-10T16:59:51.644Z,12.60
2018-05-10T17:02:19.182Z,12.50
2018-05-10T17:04:46.684Z,12.50
2018-05-10T17:07:14.236Z,12.50
2018-05-10T17:09:41.728Z,12.60
2018-05-10T17:12:09.279Z,12.60
2018-05-10T17:14:37.949Z,12.50
2018-05-10T17:17:05.468Z,12.50
2018-05-10T17:19:33.011Z,12.50
2018-05-10T17:22:00.519Z,12.50
2018-05-10T17:24:28.100Z,12.50
2018-05-10T17:26:55.639Z,12.50
2018-05-10T17:29:23.160Z,12.50
2018-05-10T17:31:51.474Z,12.50
2018-05-10T17:34:19.000Z,12.50
2018-05-10T17:36:46.492Z,12.60
2018-05-10T17:39:14.016Z,12.50
2018-05-10T17:41:41.530Z,12.60
2018-05-10T17:44:09.818Z,12.70
2018-05-10T17:46:38.117Z,12.70
2018-05-10T17:49:05.654Z,12.70
2018-05-10T17:51:33.143Z,12.70
2018-05-10T17:54:00.669Z,12.80
2018-05-10T17:56:28.172Z,12.80
2018-05-10T17:58:55.712Z,12.80
2018-05-10T18:01:23.219Z,12.90
2018-05-10T18:03:50.996Z,12.80
2018-05-10T18:06:18.511Z,12.90
2018-05-10T18:08:46.031Z,12.90
2018-05-10T18:11:13.548Z,12.90
2018-05-10T18:13:41.116Z,12.90
2018-05-10T18:16:08.624Z,13.00
2018-05-10T18:18:36.496Z,13.00
2018-05-10T18:21:04.009Z,13.10
2018-05-10T18:23:31.581Z,13.00
2018-05-10T18:25:59.049Z,13.00
2018-05-10T18:28:26.596Z,13.00
2018-05-10T18:30:54.133Z,13.00
2018-05-10T18:33:21.723Z,13.10
2018-05-10T18:35:49.215Z,13.10
2018-05-10T18:38:16.714Z,13.10
2018-05-10T18:40:45.165Z,13.20
2018-05-10T18:43:12.611Z,13.20
2018-05-10T18:45:40.132Z,13.30
2018-05-10T18:48:07.628Z,13.30
2018-05-10T18:50:35.908Z,13.30
2018-05-10T18:53:03.417Z,13.30
2018-05-10T18:55:31.020Z,13.30
2018-05-10T18:57:59.315Z,13.30
2018-05-10T19:00:26.861Z,13.20
2018-05-10T19:02:54.368Z,13.30
2018-05-10T19:05:21.879Z,13.30
2018-05-10T19:07:49.564Z,13.40
2018-05-10T19:10:17.092Z,13.40
2018-05-10T19:12:44.653Z,13.40
2018-05-10T19:15:12.203Z,13.40
2018-05-10T19:17:39.703Z,13.40
2018-05-10T19:20:07.235Z,13.50
2018-05-10T19:22:34.735Z,13.50
2018-05-10T19:25:02.266Z,13.40
2018-05-10T19:27:29.795Z,13.40
2018-05-10T19:29:57.299Z,13.40
2018-05-10T19:32:25.791Z,13.40
2018-05-10T19:34:54.052Z,13.30
2018-05-10T19:37:21.580Z,13.30
2018-05-10T19:39:49.133Z,13.30
2018-05-10T19:42:16.676Z,13.40
2018-05-10T19:44:44.979Z,13.40
2018-05-10T19:47:13.262Z,13.40
2018-05-10T19:49:41.529Z,13.40
2018-05-10T19:52:09.055Z,13.40
2018-05-10T19:54:36.600Z,13.40
2018-05-10T19:57:04.922Z,13.40
2018-05-10T19:59:32.415Z,13.40
2018-05-10T20:01:59.940Z,13.30
2018-05-10T20:04:28.199Z,13.30
2018-05-10T20:06:55.719Z,13.30
2018-05-10T20:09:23.219Z,13.40
2018-05-10T20:11:50.788Z,13.40
2018-05-10T20:14:18.299Z,13.40
2018-05-10T20:16:45.945Z,13.40
2018-05-10T20:19:13.440Z,13.40
2018-05-10T20:21:40.976Z,13.40
2018-05-10T20:24:08.658Z,13.50
2018-05-10T20:26:36.793Z,13.40
2018-05-10T20:29:05.074Z,13.50
2018-05-10T20:31:33.375Z,13.50
2018-05-10T20:34:01.739Z,13.50
2018-05-10T20:36:29.268Z,13.50
2018-05-10T20:38:56.775Z,13.50
2018-05-10T20:41:24.271Z,13.50
2018-05-10T20:43:51.787Z,13.40
2018-05-10T20:46:19.291Z,13.40
2018-05-10T20:48:46.819Z,13.40
2018-05-10T20:51:14.346Z,13.40
2018-05-10T20:53:41.878Z,13.50
2018-05-10T20:56:09.398Z,13.50
2018-05-10T20:58:37.700Z,13.50
2018-05-10T21:01:05.204Z,13.40
2018-05-10T21:03:32.822Z,13.50
2018-05-10T21:06:00.252Z,13.50
2018-05-10T21:08:27.767Z,13.40
2018-05-10T21:10:56.040Z,13.50
2018-05-10T21:13:23.575Z,13.50
2018-05-10T21:15:51.329Z,13.60
2018-05-10T21:18:18.848Z,13.60
2018-05-10T21:20:46.351Z,13.50
2018-05-10T21:23:14.743Z,13.60
2018-05-10T21:25:42.172Z,13.50
2018-05-10T21:28:09.699Z,13.60
2018-05-10T21:30:37.205Z,13.50
2018-05-10T21:33:04.719Z,13.60
2018-05-10T21:35:32.228Z,13.50
2018-05-10T21:37:59.765Z,13.50
2018-05-10T21:40:28.041Z,13.50
2018-05-10T21:42:55.592Z,13.50
2018-05-10T21:45:23.075Z,13.50
2018-05-10T21:47:50.598Z,13.60
2018-05-10T21:50:18.107Z,13.60
2018-05-10T21:52:45.674Z,13.60
2018-05-10T21:55:13.945Z,13.60
2018-05-10T21:57:41.488Z,13.60
2018-05-10T22:00:08.989Z,13.60
2018-05-10T22:02:36.483Z,13.60
2018-05-10T22:05:04.768Z,13.60
2018-05-10T22:07:32.273Z,13.60
2018-05-10T22:09:59.797Z,13.60
2018-05-10T22:12:27.293Z,13.60
2018-05-10T22:14:54.821Z,13.50
2018-05-10T22:17:22.323Z,13.50
2018-05-10T22:19:49.836Z,13.60
2018-05-10T22:22:18.128Z,13.60
2018-05-10T22:24:46.451Z,13.70
2018-05-10T22:27:13.963Z,13.70
2018-05-10T22:29:41.487Z,13.60
2018-05-10T22:32:08.983Z,13.60
2018-05-10T22:34:36.504Z,13.50
2018-05-10T22:37:04.774Z,13.60
2018-05-10T22:39:32.289Z,13.60
2018-05-10T22:41:59.837Z,13.60
2018-05-10T22:44:28.204Z,13.60
2018-05-10T22:46:56.405Z,13.60
2018-05-10T22:49:23.922Z,13.60
2018-05-10T22:51:51.416Z,13.60
2018-05-10T22:54:18.923Z,13.60
2018-05-10T22:56:47.199Z,13.60
2018-05-10T22:59:14.727Z,13.60
2018-05-10T23:01:42.221Z,13.60
2018-05-10T23:04:09.725Z,13.60
2018-05-10T23:06:38.016Z,13.50
2018-05-10T23:09:06.272Z,13.50
2018-05-10T23:11:33.792Z,13.50
2018-05-10T23:14:01.321Z,13.50
2018-05-10T23:16:28.823Z,13.50
2018-05-10T23:18:57.092Z,13.50
2018-05-10T23:21:24.644Z,13.50
2018-05-10T23:23:52.135Z,13.50
2018-05-10T23:26:19.700Z,13.50
2018-05-10T23:28:47.211Z,13.40
2018-05-10T23:31:14.740Z,13.30
2018-05-10T23:33:43.024Z,13.20
2018-05-10T23:36:10.544Z,13.20
2018-05-10T23:38:38.048Z,13.20
2018-05-10T23:41:05.564Z,13.20
2018-05-10T23:43:33.828Z,13.10
2018-05-10T23:46:01.353Z,13.10
2018-05-10T23:48:28.870Z,13.10
2018-05-10T23:50:56.388Z,13.00
2018-05-10T23:53:23.894Z,13.10
2018-05-10T23:55:51.424Z,13.00
2018-05-10T23:58:19.700Z,13.00
